sensor_id;sensor_type;location;lat;lon;timestamp;P1;durP1;ratioP1;P2;durP2;ratioP2
35693;SDS011;21812;55.536;37.664;2023-06-24T00:02:11;12.63;;;11.43;;
35693;SDS011;21812;55.536;37.664;2023-06-24T00:04:37;16.17;;;12.93;;
35693;SDS011;21812;55.536;37.664;2023-06-24T00:07:02;18.65;;;14.35;;
35693;SDS011;21812;55.536;37.664;2023-06-24T00:09:28;17.95;;;16.20;;
35693;SDS011;21812;55.536;37.664;2023-06-24T00:11:56;18.98;;;15.40;;
35693;SDS011;21812;55.536;37.664;2023-06-24T00:14:25;14.23;;;12.70;;
35693;SDS011;21812;55.536;37.664;2023-06-24T00:16:52;9.68;;;8.68;;
35693;SDS011;21812;55.536;37.664;2023-06-24T00:19:19;14.35;;;12.75;;
35693;SDS011;21812;55.536;37.664;2023-06-24T00:21:49;10.35;;;9.30;;
35693;SDS011;21812;55.536;37.664;2023-06-24T00:24:17;12.77;;;11.48;;
35693;SDS011;21812;55.536;37.664;2023-06-24T00:26:48;13.95;;;12.45;;
35693;SDS011;21812;55.536;37.664;2023-06-24T00:29:14;13.93;;;12.52;;
35693;SDS011;21812;55.536;37.664;2023-06-24T00:31:41;12.38;;;11.07;;
35693;SDS011;21812;55.536;37.664;2023-06-24T00:34:07;13.60;;;12.20;;
35693;SDS011;21812;55.536;37.664;2023-06-24T00:36:33;14.20;;;11.93;;
35693;SDS011;21812;55.536;37.664;2023-06-24T00:39:01;12.85;;;11.65;;
35693;SDS011;21812;55.536;37.664;2023-06-24T00:41:31;13.15;;;10.80;;
35693;SDS011;21812;55.536;37.664;2023-06-24T00:43:59;10.38;;;9.27;;
35693;SDS011;21812;55.536;37.664;2023-06-24T00:46:27;13.27;;;11.60;;
35693;SDS011;21812;55.536;37.664;2023-06-24T00:48:56;14.02;;;10.50;;
35693;SDS011;21812;55.536;37.664;2023-06-24T00:51:25;10.93;;;9.73;;
35693;SDS011;21812;55.536;37.664;2023-06-24T00:53:53;12.57;;;9.75;;
35693;SDS011;21812;55.536;37.664;2023-06-24T00:56:19;10.60;;;9.50;;
35693;SDS011;21812;55.536;37.664;2023-06-24T00:58:47;13.40;;;10.70;;
35693;SDS011;21812;55.536;37.664;2023-06-24T01:01:15;12.63;;;10.98;;
35693;SDS011;21812;55.536;37.664;2023-06-24T01:03:41;14.77;;;9.93;;
35693;SDS011;21812;55.536;37.664;2023-06-24T01:06:09;12.18;;;11.07;;
35693;SDS011;21812;55.536;37.664;2023-06-24T01:08:36;11.00;;;9.90;;
35693;SDS011;21812;55.536;37.664;2023-06-24T01:11:02;11.57;;;9.27;;
35693;SDS011;21812;55.536;37.664;2023-06-24T01:13:28;10.77;;;9.68;;
35693;SDS011;21812;55.536;37.664;2023-06-24T01:15:53;10.57;;;9.60;;
35693;SDS011;21812;55.536;37.664;2023-06-24T01:20:55;11.50;;;9.20;;
35693;SDS011;21812;55.536;37.664;2023-06-24T01:29:30;10.73;;;8.52;;
35693;SDS011;21812;55.536;37.664;2023-06-24T01:34:37;12.07;;;10.30;;
35693;SDS011;21812;55.536;37.664;2023-06-24T01:37:15;11.05;;;9.75;;
35693;SDS011;21812;55.536;37.664;2023-06-24T01:39:52;10.02;;;9.00;;
35693;SDS011;21812;55.536;37.664;2023-06-24T01:42:26;11.00;;;9.85;;
35693;SDS011;21812;55.536;37.664;2023-06-24T01:44:54;10.68;;;9.57;;
35693;SDS011;21812;55.536;37.664;2023-06-24T01:47:23;10.57;;;9.48;;
35693;SDS011;21812;55.536;37.664;2023-06-24T01:49:52;10.90;;;9.75;;
35693;SDS011;21812;55.536;37.664;2023-06-24T01:52:21;10.02;;;8.90;;
35693;SDS011;21812;55.536;37.664;2023-06-24T01:54:48;10.73;;;8.57;;
35693;SDS011;21812;55.536;37.664;2023-06-24T01:57:15;9.57;;;8.68;;
35693;SDS011;21812;55.536;37.664;2023-06-24T01:59:44;10.93;;;8.55;;
35693;SDS011;21812;55.536;37.664;2023-06-24T02:02:12;9.43;;;8.52;;
35693;SDS011;21812;55.536;37.664;2023-06-24T02:04:39;9.30;;;8.38;;
35693;SDS011;21812;55.536;37.664;2023-06-24T02:07:05;9.60;;;8.60;;
35693;SDS011;21812;55.536;37.664;2023-06-24T02:09:37;10.50;;;8.73;;
35693;SDS011;21812;55.536;37.664;2023-06-24T02:12:04;10.00;;;7.78;;
35693;SDS011;21812;55.536;37.664;2023-06-24T02:14:33;8.45;;;7.65;;
35693;SDS011;21812;55.536;37.664;2023-06-24T02:17:00;7.82;;;7.13;;
35693;SDS011;21812;55.536;37.664;2023-06-24T02:19:29;7.88;;;6.93;;
35693;SDS011;21812;55.536;37.664;2023-06-24T02:21:57;7.80;;;6.63;;
35693;SDS011;21812;55.536;37.664;2023-06-24T02:24:24;7.32;;;6.45;;
35693;SDS011;21812;55.536;37.664;2023-06-24T02:26:51;7.03;;;6.32;;
35693;SDS011;21812;55.536;37.664;2023-06-24T02:29:18;7.15;;;6.32;;
35693;SDS011;21812;55.536;37.664;2023-06-24T02:31:48;8.30;;;6.72;;
35693;SDS011;21812;55.536;37.664;2023-06-24T02:34:15;7.10;;;6.43;;
35693;SDS011;21812;55.536;37.664;2023-06-24T02:36:41;6.97;;;6.28;;
35693;SDS011;21812;55.536;37.664;2023-06-24T02:39:07;6.72;;;6.03;;
35693;SDS011;21812;55.536;37.664;2023-06-24T02:41:32;6.47;;;5.35;;
35693;SDS011;21812;55.536;37.664;2023-06-24T02:43:58;6.60;;;6.00;;
35693;SDS011;21812;55.536;37.664;2023-06-24T02:46:24;7.30;;;6.60;;
35693;SDS011;21812;55.536;37.664;2023-06-24T02:48:55;5.97;;;5.40;;
35693;SDS011;21812;55.536;37.664;2023-06-24T02:51:24;7.05;;;6.40;;
35693;SDS011;21812;55.536;37.664;2023-06-24T02:53:50;7.30;;;6.60;;
35693;SDS011;21812;55.536;37.664;2023-06-24T02:56:21;7.10;;;5.80;;
35693;SDS011;21812;55.536;37.664;2023-06-24T02:58:49;8.27;;;5.07;;
35693;SDS011;21812;55.536;37.664;2023-06-24T03:01:25;7.07;;;5.10;;
35693;SDS011;21812;55.536;37.664;2023-06-24T03:03:54;5.57;;;4.97;;
35693;SDS011;21812;55.536;37.664;2023-06-24T03:06:21;4.60;;;4.00;;
35693;SDS011;21812;55.536;37.664;2023-06-24T03:08:48;3.95;;;3.65;;
35693;SDS011;21812;55.536;37.664;2023-06-24T03:11:16;4.68;;;3.67;;
35693;SDS011;21812;55.536;37.664;2023-06-24T03:13:43;8.15;;;3.72;;
35693;SDS011;21812;55.536;37.664;2023-06-24T03:16:19;3.90;;;3.58;;
35693;SDS011;21812;55.536;37.664;2023-06-24T03:18:53;3.35;;;2.95;;
35693;SDS011;21812;55.536;37.664;2023-06-24T03:21:20;4.53;;;2.92;;
35693;SDS011;21812;55.536;37.664;2023-06-24T03:23:47;3.90;;;2.70;;
35693;SDS011;21812;55.536;37.664;2023-06-24T03:26:14;2.65;;;2.42;;
35693;SDS011;21812;55.536;37.664;2023-06-24T03:28:42;4.38;;;3.25;;
35693;SDS011;21812;55.536;37.664;2023-06-24T03:31:12;3.95;;;3.17;;
35693;SDS011;21812;55.536;37.664;2023-06-24T03:33:41;3.63;;;2.83;;
35693;SDS011;21812;55.536;37.664;2023-06-24T03:36:12;2.10;;;2.00;;
35693;SDS011;21812;55.536;37.664;2023-06-24T03:38:39;4.70;;;2.42;;
35693;SDS011;21812;55.536;37.664;2023-06-24T03:41:05;2.60;;;2.00;;
35693;SDS011;21812;55.536;37.664;2023-06-24T03:43:32;2.13;;;1.70;;
35693;SDS011;21812;55.536;37.664;2023-06-24T03:45:58;3.60;;;1.50;;
35693;SDS011;21812;55.536;37.664;2023-06-24T03:48:25;3.53;;;1.77;;
35693;SDS011;21812;55.536;37.664;2023-06-24T03:50:51;3.28;;;1.98;;
35693;SDS011;21812;55.536;37.664;2023-06-24T03:53:17;1.90;;;1.40;;
35693;SDS011;21812;55.536;37.664;2023-06-24T03:55:43;2.00;;;1.52;;
35693;SDS011;21812;55.536;37.664;2023-06-24T03:58:09;1.60;;;1.50;;
35693;SDS011;21812;55.536;37.664;2023-06-24T04:00:34;1.98;;;1.40;;
35693;SDS011;21812;55.536;37.664;2023-06-24T04:03:06;2.42;;;1.40;;
35693;SDS011;21812;55.536;37.664;2023-06-24T04:05:33;17.80;;;4.75;;
35693;SDS011;21812;55.536;37.664;2023-06-24T04:07:59;27.70;;;6.80;;
35693;SDS011;21812;55.536;37.664;2023-06-24T04:10:25;17.10;;;3.90;;
35693;SDS011;21812;55.536;37.664;2023-06-24T04:12:51;11.70;;;4.15;;
35693;SDS011;21812;55.536;37.664;2023-06-24T04:15:17;5.28;;;2.10;;
35693;SDS011;21812;55.536;37.664;2023-06-24T04:17:43;4.20;;;1.88;;
35693;SDS011;21812;55.536;37.664;2023-06-24T04:20:09;3.47;;;1.67;;
35693;SDS011;21812;55.536;37.664;2023-06-24T04:22:36;7.00;;;2.83;;
35693;SDS011;21812;55.536;37.664;2023-06-24T04:25:05;4.32;;;2.17;;
35693;SDS011;21812;55.536;37.664;2023-06-24T04:27:32;2.47;;;1.60;;
35693;SDS011;21812;55.536;37.664;2023-06-24T04:29:59;8.88;;;3.25;;
35693;SDS011;21812;55.536;37.664;2023-06-24T04:32:25;4.30;;;1.70;;
35693;SDS011;21812;55.536;37.664;2023-06-24T04:34:51;7.88;;;3.33;;
35693;SDS011;21812;55.536;37.664;2023-06-24T04:37:17;5.82;;;2.58;;
35693;SDS011;21812;55.536;37.664;2023-06-24T04:39:46;3.63;;;2.05;;
35693;SDS011;21812;55.536;37.664;2023-06-24T04:42:14;2.90;;;1.40;;
35693;SDS011;21812;55.536;37.664;2023-06-24T04:44:40;10.07;;;1.48;;
35693;SDS011;21812;55.536;37.664;2023-06-24T04:47:05;3.08;;;0.90;;
35693;SDS011;21812;55.536;37.664;2023-06-24T04:49:31;1.08;;;0.88;;
35693;SDS011;21812;55.536;37.664;2023-06-24T04:51:59;5.18;;;0.82;;
35693;SDS011;21812;55.536;37.664;2023-06-24T04:54:26;1.13;;;0.80;;
35693;SDS011;21812;55.536;37.664;2023-06-24T04:56:52;2.58;;;1.17;;
35693;SDS011;21812;55.536;37.664;2023-06-24T04:59:20;1.48;;;0.80;;
35693;SDS011;21812;55.536;37.664;2023-06-24T05:01:49;9.05;;;1.10;;
35693;SDS011;21812;55.536;37.664;2023-06-24T05:04:15;0.68;;;0.60;;
35693;SDS011;21812;55.536;37.664;2023-06-24T05:06:40;0.60;;;0.60;;
35693;SDS011;21812;55.536;37.664;2023-06-24T05:09:06;3.38;;;1.00;;
35693;SDS011;21812;55.536;37.664;2023-06-24T05:11:32;1.42;;;0.57;;
35693;SDS011;21812;55.536;37.664;2023-06-24T05:13:57;3.58;;;0.77;;
35693;SDS011;21812;55.536;37.664;2023-06-24T05:16:23;1.48;;;1.05;;
35693;SDS011;21812;55.536;37.664;2023-06-24T05:18:49;1.17;;;0.98;;
35693;SDS011;21812;55.536;37.664;2023-06-24T05:21:15;3.05;;;1.00;;
35693;SDS011;21812;55.536;37.664;2023-06-24T05:23:42;0.80;;;0.80;;
35693;SDS011;21812;55.536;37.664;2023-06-24T05:26:07;0.80;;;0.80;;
35693;SDS011;21812;55.536;37.664;2023-06-24T05:28:33;2.30;;;1.25;;
35693;SDS011;21812;55.536;37.664;2023-06-24T05:30:59;0.98;;;0.95;;
35693;SDS011;21812;55.536;37.664;2023-06-24T05:33:24;1.13;;;1.00;;
35693;SDS011;21812;55.536;37.664;2023-06-24T05:35:50;3.55;;;0.80;;
35693;SDS011;21812;55.536;37.664;2023-06-24T05:38:16;4.45;;;0.82;;
35693;SDS011;21812;55.536;37.664;2023-06-24T05:40:42;0.70;;;0.50;;
35693;SDS011;21812;55.536;37.664;2023-06-24T05:43:08;0.93;;;0.55;;
35693;SDS011;21812;55.536;37.664;2023-06-24T05:45:33;2.05;;;0.52;;
35693;SDS011;21812;55.536;37.664;2023-06-24T05:47:59;1.92;;;0.60;;
35693;SDS011;21812;55.536;37.664;2023-06-24T05:50:25;1.67;;;0.60;;
35693;SDS011;21812;55.536;37.664;2023-06-24T05:52:50;0.65;;;0.50;;
35693;SDS011;21812;55.536;37.664;2023-06-24T05:55:16;1.13;;;0.55;;
35693;SDS011;21812;55.536;37.664;2023-06-24T05:57:42;1.08;;;0.70;;
35693;SDS011;21812;55.536;37.664;2023-06-24T06:00:08;6.95;;;0.63;;
35693;SDS011;21812;55.536;37.664;2023-06-24T06:02:43;7.88;;;0.60;;
35693;SDS011;21812;55.536;37.664;2023-06-24T06:05:09;1.05;;;0.47;;
35693;SDS011;21812;55.536;37.664;2023-06-24T06:07:35;0.63;;;0.60;;
35693;SDS011;21812;55.536;37.664;2023-06-24T06:10:04;0.80;;;0.80;;
35693;SDS011;21812;55.536;37.664;2023-06-24T06:12:31;2.05;;;0.77;;
35693;SDS011;21812;55.536;37.664;2023-06-24T06:14:56;0.90;;;0.73;;
35693;SDS011;21812;55.536;37.664;2023-06-24T06:17:22;1.25;;;0.65;;
35693;SDS011;21812;55.536;37.664;2023-06-24T06:19:48;1.23;;;0.60;;
35693;SDS011;21812;55.536;37.664;2023-06-24T06:22:14;2.42;;;0.75;;
35693;SDS011;21812;55.536;37.664;2023-06-24T06:24:40;1.23;;;0.90;;
35693;SDS011;21812;55.536;37.664;2023-06-24T06:27:09;0.50;;;0.40;;
35693;SDS011;21812;55.536;37.664;2023-06-24T06:29:36;1.50;;;0.68;;
35693;SDS011;21812;55.536;37.664;2023-06-24T06:32:02;0.85;;;0.52;;
35693;SDS011;21812;55.536;37.664;2023-06-24T06:34:28;1.95;;;0.60;;
35693;SDS011;21812;55.536;37.664;2023-06-24T06:36:54;3.50;;;0.73;;
35693;SDS011;21812;55.536;37.664;2023-06-24T06:39:19;2.97;;;0.90;;
35693;SDS011;21812;55.536;37.664;2023-06-24T06:41:45;1.77;;;0.50;;
35693;SDS011;21812;55.536;37.664;2023-06-24T06:44:16;1.35;;;0.60;;
35693;SDS011;21812;55.536;37.664;2023-06-24T06:46:42;1.10;;;0.70;;
35693;SDS011;21812;55.536;37.664;2023-06-24T06:49:07;1.17;;;1.05;;
35693;SDS011;21812;55.536;37.664;2023-06-24T06:51:33;1.00;;;0.90;;
35693;SDS011;21812;55.536;37.664;2023-06-24T06:54:00;1.08;;;0.80;;
35693;SDS011;21812;55.536;37.664;2023-06-24T06:56:26;1.02;;;0.50;;
35693;SDS011;21812;55.536;37.664;2023-06-24T06:58:53;0.60;;;0.60;;
35693;SDS011;21812;55.536;37.664;2023-06-24T07:01:19;0.73;;;0.70;;
35693;SDS011;21812;55.536;37.664;2023-06-24T07:03:45;1.27;;;0.70;;
35693;SDS011;21812;55.536;37.664;2023-06-24T07:06:11;1.73;;;0.93;;
35693;SDS011;21812;55.536;37.664;2023-06-24T07:08:37;1.00;;;0.80;;
35693;SDS011;21812;55.536;37.664;2023-06-24T07:11:03;1.35;;;1.00;;
35693;SDS011;21812;55.536;37.664;2023-06-24T07:13:29;1.20;;;1.10;;
35693;SDS011;21812;55.536;37.664;2023-06-24T07:15:54;1.25;;;1.10;;
35693;SDS011;21812;55.536;37.664;2023-06-24T07:18:20;1.00;;;0.90;;
35693;SDS011;21812;55.536;37.664;2023-06-24T07:20:46;2.38;;;1.02;;
35693;SDS011;21812;55.536;37.664;2023-06-24T07:23:12;1.92;;;1.38;;
35693;SDS011;21812;55.536;37.664;2023-06-24T07:25:38;2.67;;;1.27;;
35693;SDS011;21812;55.536;37.664;2023-06-24T07:28:03;2.85;;;1.33;;
35693;SDS011;21812;55.536;37.664;2023-06-24T07:30:29;3.30;;;1.30;;
35693;SDS011;21812;55.536;37.664;2023-06-24T07:32:55;2.55;;;1.35;;
35693;SDS011;21812;55.536;37.664;2023-06-24T07:35:21;2.33;;;1.20;;
35693;SDS011;21812;55.536;37.664;2023-06-24T07:37:47;1.10;;;1.00;;
35693;SDS011;21812;55.536;37.664;2023-06-24T07:40:13;1.20;;;1.10;;
35693;SDS011;21812;55.536;37.664;2023-06-24T07:42:38;1.98;;;1.17;;
35693;SDS011;21812;55.536;37.664;2023-06-24T07:45:04;4.22;;;1.13;;
35693;SDS011;21812;55.536;37.664;2023-06-24T07:47:31;1.45;;;1.00;;
35693;SDS011;21812;55.536;37.664;2023-06-24T07:49:57;2.47;;;1.17;;
35693;SDS011;21812;55.536;37.664;2023-06-24T07:52:23;2.30;;;1.27;;
35693;SDS011;21812;55.536;37.664;2023-06-24T07:54:49;2.28;;;1.65;;
35693;SDS011;21812;55.536;37.664;2023-06-24T07:57:14;6.07;;;1.38;;
35693;SDS011;21812;55.536;37.664;2023-06-24T07:59:40;1.63;;;1.52;;
35693;SDS011;21812;55.536;37.664;2023-06-24T08:02:06;4.28;;;1.83;;
35693;SDS011;21812;55.536;37.664;2023-06-24T08:04:32;2.92;;;2.25;;
35693;SDS011;21812;55.536;37.664;2023-06-24T08:06:58;1.60;;;1.50;;
35693;SDS011;21812;55.536;37.664;2023-06-24T08:09:24;6.65;;;2.00;;
35693;SDS011;21812;55.536;37.664;2023-06-24T08:11:49;2.13;;;1.52;;
35693;SDS011;21812;55.536;37.664;2023-06-24T08:14:15;1.88;;;1.63;;
35693;SDS011;21812;55.536;37.664;2023-06-24T08:16:41;3.75;;;1.75;;
35693;SDS011;21812;55.536;37.664;2023-06-24T08:19:07;1.80;;;1.70;;
35693;SDS011;21812;55.536;37.664;2023-06-24T08:21:32;3.17;;;2.30;;
35693;SDS011;21812;55.536;37.664;2023-06-24T08:23:59;1.95;;;1.60;;
35693;SDS011;21812;55.536;37.664;2023-06-24T08:26:25;2.42;;;1.80;;
35693;SDS011;21812;55.536;37.664;2023-06-24T08:28:51;3.40;;;1.90;;
35693;SDS011;21812;55.536;37.664;2023-06-24T08:31:17;4.18;;;2.25;;
35693;SDS011;21812;55.536;37.664;2023-06-24T08:33:45;3.75;;;2.20;;
35693;SDS011;21812;55.536;37.664;2023-06-24T08:36:11;8.55;;;1.98;;
35693;SDS011;21812;55.536;37.664;2023-06-24T08:38:37;2.72;;;2.13;;
35693;SDS011;21812;55.536;37.664;2023-06-24T08:41:03;13.52;;;10.55;;
35693;SDS011;21812;55.536;37.664;2023-06-24T08:43:28;8.68;;;6.30;;
35693;SDS011;21812;55.536;37.664;2023-06-24T08:45:54;3.83;;;3.03;;
35693;SDS011;21812;55.536;37.664;2023-06-24T08:48:21;8.40;;;2.78;;
35693;SDS011;21812;55.536;37.664;2023-06-24T08:50:50;5.32;;;2.55;;
35693;SDS011;21812;55.536;37.664;2023-06-24T08:53:18;3.47;;;2.78;;
35693;SDS011;21812;55.536;37.664;2023-06-24T08:55:45;2.97;;;2.30;;
35693;SDS011;21812;55.536;37.664;2023-06-24T08:58:12;5.65;;;3.03;;
35693;SDS011;21812;55.536;37.664;2023-06-24T09:00:39;6.20;;;2.63;;
35693;SDS011;21812;55.536;37.664;2023-06-24T09:03:08;6.38;;;2.83;;
35693;SDS011;21812;55.536;37.664;2023-06-24T09:05:33;2.92;;;2.42;;
35693;SDS011;21812;55.536;37.664;2023-06-24T09:07:59;2.85;;;2.53;;
35693;SDS011;21812;55.536;37.664;2023-06-24T09:10:34;3.10;;;2.80;;
35693;SDS011;21812;55.536;37.664;2023-06-24T09:13:04;3.92;;;2.65;;
35693;SDS011;21812;55.536;37.664;2023-06-24T09:15:31;4.13;;;2.60;;
35693;SDS011;21812;55.536;37.664;2023-06-24T09:17:58;2.67;;;2.08;;
35693;SDS011;21812;55.536;37.664;2023-06-24T09:20:28;3.70;;;2.42;;
35693;SDS011;21812;55.536;37.664;2023-06-24T09:22:59;4.07;;;2.53;;
35693;SDS011;21812;55.536;37.664;2023-06-24T09:25:26;4.20;;;2.60;;
35693;SDS011;21812;55.536;37.664;2023-06-24T09:27:53;4.93;;;2.30;;
35693;SDS011;21812;55.536;37.664;2023-06-24T09:30:24;4.65;;;2.13;;
35693;SDS011;21812;55.536;37.664;2023-06-24T09:32:51;3.20;;;2.30;;
35693;SDS011;21812;55.536;37.664;2023-06-24T09:35:19;4.88;;;2.72;;
35693;SDS011;21812;55.536;37.664;2023-06-24T09:37:51;5.50;;;3.03;;
35693;SDS011;21812;55.536;37.664;2023-06-24T09:40:21;3.15;;;2.20;;
35693;SDS011;21812;55.536;37.664;2023-06-24T09:42:57;5.47;;;2.35;;
35693;SDS011;21812;55.536;37.664;2023-06-24T09:45:26;8.32;;;2.53;;
35693;SDS011;21812;55.536;37.664;2023-06-24T09:47:54;4.72;;;2.83;;
35693;SDS011;21812;55.536;37.664;2023-06-24T09:50:23;3.30;;;2.47;;
35693;SDS011;21812;55.536;37.664;2023-06-24T09:52:49;3.53;;;2.75;;
35693;SDS011;21812;55.536;37.664;2023-06-24T09:55:16;3.42;;;3.10;;
35693;SDS011;21812;55.536;37.664;2023-06-24T09:57:45;10.38;;;3.78;;
35693;SDS011;21812;55.536;37.664;2023-06-24T10:00:13;6.13;;;3.17;;
35693;SDS011;21812;55.536;37.664;2023-06-24T10:02:43;3.70;;;2.97;;
35693;SDS011;21812;55.536;37.664;2023-06-24T10:05:10;3.45;;;3.15;;
35693;SDS011;21812;55.536;37.664;2023-06-24T10:07:39;4.75;;;3.15;;
35693;SDS011;21812;55.536;37.664;2023-06-24T10:10:06;3.45;;;2.80;;
35693;SDS011;21812;55.536;37.664;2023-06-24T10:12:33;4.18;;;3.58;;
35693;SDS011;21812;55.536;37.664;2023-06-24T10:15:00;5.18;;;3.17;;
35693;SDS011;21812;55.536;37.664;2023-06-24T10:17:34;5.93;;;3.63;;
35693;SDS011;21812;55.536;37.664;2023-06-24T10:20:05;5.28;;;3.45;;
35693;SDS011;21812;55.536;37.664;2023-06-24T10:22:32;5.45;;;3.47;;
35693;SDS011;21812;55.536;37.664;2023-06-24T10:25:02;4.80;;;3.20;;
35693;SDS011;21812;55.536;37.664;2023-06-24T10:27:39;6.43;;;3.53;;
35693;SDS011;21812;55.536;37.664;2023-06-24T10:30:08;6.03;;;3.83;;
35693;SDS011;21812;55.536;37.664;2023-06-24T10:32:41;5.88;;;3.45;;
35693;SDS011;21812;55.536;37.664;2023-06-24T10:35:20;6.25;;;3.75;;
35693;SDS011;21812;55.536;37.664;2023-06-24T10:37:58;4.60;;;3.70;;
35693;SDS011;21812;55.536;37.664;2023-06-24T10:40:35;5.82;;;4.00;;
35693;SDS011;21812;55.536;37.664;2023-06-24T10:45:50;6.03;;;4.50;;
35693;SDS011;21812;55.536;37.664;2023-06-24T10:48:17;5.78;;;4.45;;
35693;SDS011;21812;55.536;37.664;2023-06-24T10:50:45;6.57;;;5.10;;
35693;SDS011;21812;55.536;37.664;2023-06-24T10:53:11;5.18;;;4.70;;
35693;SDS011;21812;55.536;37.664;2023-06-24T10:55:38;5.40;;;4.68;;
35693;SDS011;21812;55.536;37.664;2023-06-24T10:58:07;5.50;;;4.93;;
35693;SDS011;21812;55.536;37.664;2023-06-24T11:00:34;4.97;;;4.57;;
35693;SDS011;21812;55.536;37.664;2023-06-24T11:03:10;12.50;;;6.15;;
35693;SDS011;21812;55.536;37.664;2023-06-24T11:05:38;8.30;;;6.50;;
35693;SDS011;21812;55.536;37.664;2023-06-24T11:08:07;7.03;;;6.30;;
35693;SDS011;21812;55.536;37.664;2023-06-24T11:10:33;5.88;;;5.25;;
35693;SDS011;21812;55.536;37.664;2023-06-24T11:13:08;6.30;;;5.65;;
35693;SDS011;21812;55.536;37.664;2023-06-24T11:15:34;6.20;;;5.43;;
35693;SDS011;21812;55.536;37.664;2023-06-24T11:18:01;6.13;;;5.53;;
35693;SDS011;21812;55.536;37.664;2023-06-24T11:20:29;5.93;;;5.32;;
35693;SDS011;21812;55.536;37.664;2023-06-24T11:22:55;5.82;;;4.80;;
35693;SDS011;21812;55.536;37.664;2023-06-24T11:25:21;5.40;;;4.90;;
35693;SDS011;21812;55.536;37.664;2023-06-24T11:27:49;10.73;;;5.70;;
35693;SDS011;21812;55.536;37.664;2023-06-24T11:30:17;6.70;;;5.15;;
35693;SDS011;21812;55.536;37.664;2023-06-24T11:32:43;7.47;;;4.72;;
35693;SDS011;21812;55.536;37.664;2023-06-24T11:35:11;7.07;;;4.35;;
35693;SDS011;21812;55.536;37.664;2023-06-24T11:37:40;4.78;;;4.30;;
35693;SDS011;21812;55.536;37.664;2023-06-24T11:40:09;5.68;;;4.15;;
35693;SDS011;21812;55.536;37.664;2023-06-24T11:42:36;4.75;;;4.10;;
35693;SDS011;21812;55.536;37.664;2023-06-24T11:45:04;4.85;;;4.43;;
35693;SDS011;21812;55.536;37.664;2023-06-24T11:47:33;4.07;;;3.78;;
35693;SDS011;21812;55.536;37.664;2023-06-24T11:50:00;4.47;;;4.07;;
35693;SDS011;21812;55.536;37.664;2023-06-24T11:52:44;6.90;;;5.88;;
35693;SDS011;21812;55.536;37.664;2023-06-24T11:55:24;24.48;;;19.98;;
35693;SDS011;21812;55.536;37.664;2023-06-24T11:58:01;10.95;;;8.13;;
35693;SDS011;21812;55.536;37.664;2023-06-24T12:00:32;9.02;;;7.45;;
35693;SDS011;21812;55.536;37.664;2023-06-24T12:03:01;6.45;;;5.32;;
35693;SDS011;21812;55.536;37.664;2023-06-24T12:05:30;5.05;;;4.25;;
35693;SDS011;21812;55.536;37.664;2023-06-24T12:07:58;4.95;;;4.45;;
35693;SDS011;21812;55.536;37.664;2023-06-24T12:10:27;4.53;;;4.13;;
35693;SDS011;21812;55.536;37.664;2023-06-24T12:12:55;7.30;;;4.53;;
35693;SDS011;21812;55.536;37.664;2023-06-24T12:15:22;4.05;;;3.75;;
35693;SDS011;21812;55.536;37.664;2023-06-24T12:17:47;4.38;;;3.78;;
35693;SDS011;21812;55.536;37.664;2023-06-24T12:20:14;8.27;;;4.65;;
35693;SDS011;21812;55.536;37.664;2023-06-24T12:22:41;4.90;;;4.40;;
35693;SDS011;21812;55.536;37.664;2023-06-24T12:25:07;4.75;;;4.30;;
35693;SDS011;21812;55.536;37.664;2023-06-24T12:27:34;5.28;;;4.32;;
35693;SDS011;21812;55.536;37.664;2023-06-24T12:29:59;6.30;;;5.65;;
35693;SDS011;21812;55.536;37.664;2023-06-24T12:32:26;3.88;;;3.40;;
35693;SDS011;21812;55.536;37.664;2023-06-24T12:34:52;4.85;;;3.78;;
35693;SDS011;21812;55.536;37.664;2023-06-24T12:37:18;4.18;;;3.30;;
35693;SDS011;21812;55.536;37.664;2023-06-24T12:39:44;6.07;;;5.47;;
35693;SDS011;21812;55.536;37.664;2023-06-24T12:42:10;5.97;;;5.35;;
35693;SDS011;21812;55.536;37.664;2023-06-24T12:44:36;4.70;;;4.30;;
35693;SDS011;21812;55.536;37.664;2023-06-24T12:47:03;9.68;;;6.75;;
35693;SDS011;21812;55.536;37.664;2023-06-24T12:49:29;4.70;;;3.85;;
35693;SDS011;21812;55.536;37.664;2023-06-24T12:51:55;4.40;;;4.00;;
35693;SDS011;21812;55.536;37.664;2023-06-24T12:54:20;4.82;;;3.72;;
35693;SDS011;21812;55.536;37.664;2023-06-24T12:56:46;6.10;;;4.72;;
35693;SDS011;21812;55.536;37.664;2023-06-24T12:59:11;4.32;;;3.17;;
35693;SDS011;21812;55.536;37.664;2023-06-24T13:01:37;9.57;;;4.75;;
35693;SDS011;21812;55.536;37.664;2023-06-24T13:04:03;4.53;;;3.95;;
35693;SDS011;21812;55.536;37.664;2023-06-24T13:06:29;6.65;;;4.78;;
35693;SDS011;21812;55.536;37.664;2023-06-24T13:08:55;9.20;;;5.32;;
35693;SDS011;21812;55.536;37.664;2023-06-24T13:11:20;5.65;;;4.55;;
35693;SDS011;21812;55.536;37.664;2023-06-24T13:13:46;4.65;;;4.20;;
35693;SDS011;21812;55.536;37.664;2023-06-24T13:16:12;6.10;;;3.78;;
35693;SDS011;21812;55.536;37.664;2023-06-24T13:18:37;5.43;;;4.10;;
35693;SDS011;21812;55.536;37.664;2023-06-24T13:21:03;7.35;;;4.22;;
35693;SDS011;21812;55.536;37.664;2023-06-24T13:23:29;3.92;;;3.40;;
35693;SDS011;21812;55.536;37.664;2023-06-24T13:25:55;4.47;;;3.22;;
35693;SDS011;21812;55.536;37.664;2023-06-24T13:28:20;6.43;;;3.97;;
35693;SDS011;21812;55.536;37.664;2023-06-24T13:30:46;3.72;;;3.40;;
35693;SDS011;21812;55.536;37.664;2023-06-24T13:33:12;3.95;;;3.58;;
35693;SDS011;21812;55.536;37.664;2023-06-24T13:35:37;5.10;;;3.72;;
35693;SDS011;21812;55.536;37.664;2023-06-24T13:38:03;5.40;;;3.83;;
35693;SDS011;21812;55.536;37.664;2023-06-24T13:40:29;5.40;;;3.95;;
35693;SDS011;21812;55.536;37.664;2023-06-24T13:42:54;7.82;;;3.80;;
35693;SDS011;21812;55.536;37.664;2023-06-24T13:45:20;3.55;;;3.20;;
35693;SDS011;21812;55.536;37.664;2023-06-24T13:47:46;6.60;;;4.45;;
35693;SDS011;21812;55.536;37.664;2023-06-24T13:50:11;3.75;;;3.45;;
35693;SDS011;21812;55.536;37.664;2023-06-24T13:52:37;4.50;;;4.10;;
35693;SDS011;21812;55.536;37.664;2023-06-24T13:55:04;4.68;;;3.78;;
35693;SDS011;21812;55.536;37.664;2023-06-24T13:57:30;5.03;;;4.03;;
35693;SDS011;21812;55.536;37.664;2023-06-24T13:59:56;4.78;;;4.38;;
35693;SDS011;21812;55.536;37.664;2023-06-24T14:02:23;5.00;;;4.45;;
35693;SDS011;21812;55.536;37.664;2023-06-24T14:04:48;5.53;;;4.05;;
35693;SDS011;21812;55.536;37.664;2023-06-24T14:07:14;5.45;;;4.47;;
35693;SDS011;21812;55.536;37.664;2023-06-24T14:09:40;7.25;;;4.63;;
35693;SDS011;21812;55.536;37.664;2023-06-24T14:12:06;6.78;;;4.38;;
35693;SDS011;21812;55.536;37.664;2023-06-24T14:14:34;5.60;;;4.38;;
35693;SDS011;21812;55.536;37.664;2023-06-24T14:17:00;5.75;;;4.40;;
35693;SDS011;21812;55.536;37.664;2023-06-24T14:19:26;6.78;;;3.97;;
35693;SDS011;21812;55.536;37.664;2023-06-24T14:21:52;5.68;;;4.18;;
35693;SDS011;21812;55.536;37.664;2023-06-24T14:24:18;4.35;;;3.92;;
35693;SDS011;21812;55.536;37.664;2023-06-24T14:26:44;5.40;;;4.13;;
35693;SDS011;21812;55.536;37.664;2023-06-24T14:29:10;6.75;;;4.55;;
35693;SDS011;21812;55.536;37.664;2023-06-24T14:31:35;4.25;;;3.55;;
35693;SDS011;21812;55.536;37.664;2023-06-24T14:34:01;6.30;;;3.90;;
35693;SDS011;21812;55.536;37.664;2023-06-24T14:36:27;4.30;;;3.72;;
35693;SDS011;21812;55.536;37.664;2023-06-24T14:38:52;5.65;;;4.00;;
35693;SDS011;21812;55.536;37.664;2023-06-24T14:41:18;4.07;;;3.05;;
35693;SDS011;21812;55.536;37.664;2023-06-24T14:43:44;4.57;;;4.18;;
35693;SDS011;21812;55.536;37.664;2023-06-24T14:46:09;6.20;;;3.88;;